Wallsend, United Kingdom
Current Conditions -  °F | °C
As of 12:50 PM on Saturday 25 Oct 2014 (Local Time) from EGNT Reporting Station
Few Clouds Few Clouds  
Wind Chill: 57°   Ceiling: Unl
Heat Index: 57°   Visibility: 6mi
Dew Point: 46°   Wind: 17mph
Humidity: 67%   Direction: 250°WSW
Pressure: 29.77"   Gusts: 29mph
Location:  54.99°N, 1.53°W
Report Text: EGNT 251150Z 25015G25KT 220V280 9999 FEW025 14/08 Q1008
Loading
Personal Weather Stations






























Interactive Weather Map
Tropical Storm Tracking
New forecast layout! Learn more

10-Day Weather Forecast

Advertisements
Track Severe Weather on mobile